Euskara    
Meteorología y climatología de Navarra
Datos de la estación - Meteo Navarra

Estación de Sartaguda GN

Altitud 310 m.


Datos desde el 18/10/2020 hasta el 19/10/2020 en horario solar
Los datos son PROVISIONALES

Anterior Página 1 de 1 Siguiente Descargar: Formato para Excel 2000 o superior   Formato csv   Formato para OpenOffice Calc
Fecha Temperatura Humedad relativa Radiación global Insolación Precipitación Vel. viento 10 m Vel. viento 10 m Dir. viento 10 m
°C % W/m² s l/m² m/s km/h °
18/10/2020 0:00 5.8 85 0.0 0 0.0 1.0 3.6 278
18/10/2020 0:10 5.7 85 0.0 0 0.0 1.7 5.9 284
18/10/2020 0:20 5.7 85 0.0 0 0.0 1.2 4.3 294
18/10/2020 0:30 5.8 85 0.0 0 0.0 1.0 3.7 273
18/10/2020 0:40 5.5 84 0.0 0 0.0 0.9 3.1 289
18/10/2020 0:50 5.3 85 0.0 0 0.0 0.5 1.7 277
18/10/2020 1:00 5.0 86 0.0 0 0.0 0.3 1.1 265
18/10/2020 1:10 4.4 87 0.0 0 0.0 0.2 0.7 273
18/10/2020 1:20 4.4 87 0.0 0 0.0 0.5 1.9 278
18/10/2020 1:30 4.4 88 0.0 0 0.0 0.8 2.9 310
18/10/2020 1:40 4.3 89 0.0 0 0.0 0.9 3.1 293
18/10/2020 1:50 4.2 90 0.0 0 0.0 1.5 5.3 271
18/10/2020 2:00 4.4 90 0.0 0 0.0 1.6 5.9 278
18/10/2020 2:10 4.6 90 0.0 0 0.0 1.5 5.5 285
18/10/2020 2:20 5.0 89 0.0 0 0.0 1.1 4.0 263
18/10/2020 2:30 4.6 88 0.0 0 0.0 0.5 1.9 248
18/10/2020 2:40 4.4 89 0.0 0 0.0 0.4 1.5 241
18/10/2020 2:50 4.5 90 0.0 0 0.0 0.8 2.8 265
18/10/2020 3:00 4.2 89 0.0 0 0.0 0.5 1.7 295
18/10/2020 3:10 3.9 89 0.0 0 0.0 0.5 1.7 310
18/10/2020 3:20 3.4 89 0.0 0 0.0 0.5 1.7 319
18/10/2020 3:30 3.3 90 0.0 0 0.0 0.1 0.4 320
18/10/2020 3:40 3.3 92 0.0 0 0.0 0.6 2.1 254
18/10/2020 3:50 3.2 91 0.0 0 0.0 1.0 3.5 275
18/10/2020 4:00 3.2 91 0.0 0 0.0 1.2 4.2 308
18/10/2020 4:10 3.3 92 0.0 0 0.0 0.8 3.0 290
18/10/2020 4:20 3.3 92 0.0 0 0.0 1.0 3.4 284
18/10/2020 4:30 3.3 91 0.0 0 0.0 1.0 3.5 273
18/10/2020 4:40 3.5 92 0.0 0 0.0 1.5 5.5 274
18/10/2020 4:50 3.9 92 0.0 0 0.0 1.6 5.6 315
18/10/2020 5:00 4.1 91 0.0 0 0.0 1.7 6.0 317
18/10/2020 5:10 3.8 90 0.0 0 0.0 0.9 3.3 281
18/10/2020 5:20 3.5 91 0.0 0 0.0 0.4 1.6 213
18/10/2020 5:30 3.3 91 0.0 0 0.0 0.1 0.4 190
18/10/2020 5:40 3.1 91 0.0 0 0.0 0.3 0.9 189
18/10/2020 5:50 3.0 93 0.0 0 0.0 0.4 1.3 203
18/10/2020 6:00 3.2 93 0.0 0 0.0 0.1 0.3 275
18/10/2020 6:10 3.2 93 0.0 0 0.0 0.7 2.4 247
18/10/2020 6:20 3.4 92 0.0 0 0.0 1.1 3.8 249
18/10/2020 6:30 3.5 94 0.7 0 0.0 1.4 5.1 282
18/10/2020 6:40 4.1 93 24.9 114 0.0 2.0 7.0 315
18/10/2020 6:50 4.7 91 41.5 600 0.0 2.1 7.4 320
18/10/2020 7:00 4.9 90 65.7 600 0.0 1.5 5.5 324
18/10/2020 7:10 5.1 90 92.9 600 0.0 1.2 4.2 310
18/10/2020 7:20 5.4 89 108.5 600 0.0 1.1 4.0 312
18/10/2020 7:30 5.8 89 109.0 600 0.0 1.1 3.8 11
18/10/2020 7:40 6.1 89 143.4 600 0.0 0.1 0.4 77
18/10/2020 7:50 6.6 88 189.8 600 0.0 0.1 0.4 155
18/10/2020 8:00 7.1 87 222.5 600 0.0 0.3 1.1 54
18/10/2020 8:10 7.4 85 185.6 600 0.0 1.2 4.2 358
18/10/2020 8:20 7.6 83 181.3 586 0.0 0.8 2.8 345
18/10/2020 8:30 8.1 81 234.3 600 0.0 0.5 1.7 2
18/10/2020 8:40 8.4 80 242.3 600 0.0 0.3 0.9 297
18/10/2020 8:50 8.7 78 202.1 300 0.0 1.5 5.2 325
18/10/2020 9:00 8.8 77 158.8 0 0.0 1.9 6.9 335
18/10/2020 9:10 9.0 76 231.6 302 0.0 1.8 6.6 332
18/10/2020 9:20 9.5 74 418.5 600 0.0 1.5 5.3 333
18/10/2020 9:30 10.5 72 421.3 600 0.0 0.5 1.7 2
18/10/2020 9:40 11.3 69 402.6 490 0.0 0.5 1.7 12
18/10/2020 9:50 11.8 66 410.4 558 0.0 0.5 1.9 97
18/10/2020 10:00 12.3 65 438.0 562 0.0 0.5 1.7 102
18/10/2020 10:10 12.7 64 542.0 600 0.0 0.5 1.9 32
18/10/2020 10:20 13.4 61 548.3 600 0.0 0.6 2.3 136
18/10/2020 10:30 13.9 58 563.7 600 0.0 1.0 3.7 172
18/10/2020 10:40 14.6 57 576.1 600 0.0 0.9 3.1 132
18/10/2020 10:50 14.8 55 587.9 600 0.0 1.4 5.1 165
18/10/2020 11:00 15.3 54 594.6 600 0.0 0.7 2.6 87
18/10/2020 11:10 15.9 53 604.0 600 0.0 1.3 4.5 92
18/10/2020 11:20 16.0 52 615.4 600 0.0 1.6 5.8 116
18/10/2020 11:30 16.4 50 616.2 600 0.0 1.3 4.5 91
18/10/2020 11:40 16.8 49 629.0 600 0.0 1.1 4.1 112
18/10/2020 11:50 17.3 47 620.2 600 0.0 1.9 6.7 128
18/10/2020 12:00 17.5 47 590.9 600 0.0 1.8 6.4 94
18/10/2020 12:10 17.6 46 621.1 600 0.0 1.8 6.3 91
18/10/2020 12:20 17.9 45 567.1 600 0.0 1.5 5.4 104
18/10/2020 12:30 18.1 44 563.0 600 0.0 1.1 4.0 114
18/10/2020 12:40 18.4 43 609.2 600 0.0 1.7 6.3 170
18/10/2020 12:50 18.7 42 611.2 600 0.0 1.2 4.3 172
18/10/2020 13:00 19.2 41 541.1 600 0.0 1.5 5.4 146
18/10/2020 13:10 19.2 41 510.8 600 0.0 0.9 3.4 125
18/10/2020 13:20 19.5 41 540.9 600 0.0 1.4 4.9 104
18/10/2020 13:30 19.6 40 408.8 600 0.0 0.9 3.1 137
18/10/2020 13:40 19.6 41 320.7 498 0.0 1.3 4.5 114
18/10/2020 13:50 19.4 41 266.9 120 0.0 1.1 4.0 121
18/10/2020 14:00 19.2 42 248.0 56 0.0 1.5 5.2 159
18/10/2020 14:10 19.1 41 260.7 340 0.0 1.1 3.9 148
18/10/2020 14:20 19.2 41 295.5 384 0.0 1.3 4.7 157
18/10/2020 14:30 19.7 40 453.2 600 0.0 1.9 6.8 154
18/10/2020 14:40 19.8 40 405.2 600 0.0 2.0 7.0 150
18/10/2020 14:50 19.6 41 227.8 256 0.0 2.2 7.8 154
18/10/2020 15:00 19.2 42 179.0 0 0.0 2.3 8.1 161
18/10/2020 15:10 19.1 42 210.7 426 0.0 2.3 8.2 140
18/10/2020 15:20 19.2 42 206.8 404 0.0 2.0 7.3 129
18/10/2020 15:30 19.1 44 268.2 470 0.0 1.7 6.0 120
18/10/2020 15:40 19.5 44 327.0 600 0.0 1.7 6.2 111
18/10/2020 15:50 19.5 43 273.0 600 0.0 2.0 7.3 116
18/10/2020 16:00 19.5 44 257.4 600 0.0 2.0 7.3 109
18/10/2020 16:10 19.4 45 236.1 600 0.0 1.7 6.1 109
18/10/2020 16:20 19.4 45 191.3 600 0.0 1.7 6.1 105
18/10/2020 16:30 19.2 46 146.7 600 0.0 1.6 5.8 111
18/10/2020 16:40 19.0 48 97.6 600 0.0 1.4 5.0 100
18/10/2020 16:50 18.7 48 54.9 600 0.0 1.6 5.8 89
18/10/2020 17:00 18.1 50 27.0 30 0.0 1.5 5.4 89
18/10/2020 17:10 17.5 53 7.1 0 0.0 1.3 4.7 84
18/10/2020 17:20 16.8 55 0.0 0 0.0 0.1 0.3 198
18/10/2020 17:30 16.1 58 0.0 0 0.0 0.2 0.6 272
18/10/2020 17:40 15.3 61 0.0 0 0.0 0.0 0.0 292
18/10/2020 17:50 14.6 64 0.0 0 0.0 0.3 1.1 257
18/10/2020 18:00 13.7 69 0.0 0 0.0 0.7 2.6 323
18/10/2020 18:10 13.3 69 0.0 0 0.0 0.6 2.1 280
18/10/2020 18:20 12.7 70 0.0 0 0.0 0.5 1.9 292
18/10/2020 18:30 12.2 73 0.0 0 0.0 0.4 1.5 266
18/10/2020 18:40 11.3 75 0.0 0 0.0 0.1 0.4 239
18/10/2020 18:50 11.0 74 0.0 0 0.0 0.0 0.0 0
18/10/2020 19:00 10.6 77 0.0 0 0.0 0.2 0.9 323
18/10/2020 19:10 10.2 77 0.0 0 0.0 0.1 0.2 324
18/10/2020 19:20 9.7 78 0.0 0 0.0 0.0 0.0 0
18/10/2020 19:30 9.1 81 0.0 0 0.0 0.1 0.2 219
18/10/2020 19:40 9.1 82 0.0 0 0.0 0.4 1.4 246
18/10/2020 19:50 8.8 80 0.0 0 0.0 0.1 0.3 304
18/10/2020 20:00 8.5 81 0.0 0 0.0 0.3 1.2 336
18/10/2020 20:10 7.9 83 0.0 0 0.0 0.1 0.5 254
18/10/2020 20:20 7.9 82 0.0 0 0.0 0.4 1.5 232
18/10/2020 20:30 7.8 83 0.0 0 0.0 0.2 0.6 289
18/10/2020 20:40 7.0 85 0.0 0 0.0 0.0 0.0 0
18/10/2020 20:50 7.0 84 0.0 0 0.0 0.0 0.0 0
18/10/2020 21:00 6.8 83 0.0 0 0.0 0.0 0.0 0
18/10/2020 21:10 6.7 83 0.0 0 0.0 0.1 0.2 262
18/10/2020 21:20 6.6 87 0.0 0 0.0 0.4 1.3 247
18/10/2020 21:30 6.6 86 0.0 0 0.0 0.3 1.1 318
18/10/2020 21:40 6.3 87 0.0 0 0.0 0.3 1.2 315
18/10/2020 21:50 5.9 88 0.0 0 0.0 0.3 1.0 234
18/10/2020 22:00 5.6 90 0.0 0 0.0 0.5 1.8 183
18/10/2020 22:10 5.6 87 0.0 0 0.0 0.0 0.1 196
18/10/2020 22:20 5.5 87 0.0 0 0.0 0.0 0.0 0
18/10/2020 22:30 5.3 87 0.0 0 0.0 0.0 0.0 180
18/10/2020 22:40 5.0 88 0.0 0 0.0 0.1 0.4 346
18/10/2020 22:50 5.0 90 0.0 0 0.0 0.3 1.2 240
18/10/2020 23:00 4.6 90 0.0 0 0.0 0.3 1.2 323
18/10/2020 23:10 4.6 89 0.0 0 0.0 0.2 0.7 331
18/10/2020 23:20 4.4 90 0.0 0 0.0 0.0 0.1 236
18/10/2020 23:30 4.5 92 0.0 0 0.0 0.6 2.3 238
18/10/2020 23:40 4.4 92 0.0 0 0.0 0.5 1.9 300
18/10/2020 23:50 4.5 91 0.0 0 0.0 0.3 1.2 273
Anterior Página 1 de 1 Siguiente

NOTA: Tipo de datos según el color:
   - Valores diarios o 10 minutos correctos
   - Valores diarios calculados a partir de un número de datos 10 minutos menor que 144 y mayor que 120, o de un número de datos semihorarios menor que 48 y mayor que 40 (caso de las estaciones de INTIA Y Ministerio)
   - Valores diez minutos estimados


Contacto        Enlaces        Aviso legal